Time;durP1;ratioP1;P1;durP2;ratioP2;P2;SDS_P1;SDS_P2;PMS_P1;PMS_P2;Temp;Humidity;BMP_temperature;BMP_pressure;BME280_temperature;BME280_humidity;BME280_pressure;Samples;Min_cycle;Max_cycle;Signal;HPM_P1;HPM_P2
2022/09/09 00:01:55;;;;;;;20.50;18.53;;;15.10;99.90;;;;;;4993736;28;20241;-52
2022/09/09 00:04:28;;;;;;;21.80;19.47;;;15.10;99.90;;;;;;4994554;28;20369;-53
2022/09/09 00:07:03;;;;;;;19.77;17.93;;;15.10;99.90;;;;;;4994255;28;20230;-53
2022/09/09 00:09:37;;;;;;;19.43;17.63;;;15.20;99.90;;;;;;4994330;28;20353;-52
2022/09/09 00:12:12;;;;;;;19.80;17.90;;;15.20;99.90;;;;;;4994364;28;20229;-52
2022/09/09 00:14:48;;;;;;;21.27;19.07;;;15.20;99.90;;;;;;4993942;28;20260;-50
2022/09/09 00:17:33;;;;;;;21.47;19.37;;;15.20;99.90;;;;;;4993909;28;20229;-50
2022/09/09 00:20:06;;;;;;;20.57;18.57;;;15.10;99.90;;;;;;4993158;28;20238;-53
2022/09/09 00:22:39;;;;;;;20.77;18.77;;;15.10;99.90;;;;;;4997124;28;20625;-52
2022/09/09 00:25:13;;;;;;;19.53;17.63;;;15.10;99.90;;;;;;4994164;28;20285;-50
2022/09/09 00:27:45;;;;;;;20.60;18.57;;;15.10;99.90;;;;;;4993781;28;20581;-51
2022/09/09 00:30:22;;;;;;;20.23;18.23;;;15.00;99.90;;;;;;4993626;28;20229;-52
2022/09/09 00:32:54;;;;;;;18.83;16.93;;;15.00;99.90;;;;;;4991021;28;20268;-51
2022/09/09 00:35:25;;;;;;;21.00;18.90;;;15.00;99.90;;;;;;4993786;28;20221;-52
2022/09/09 00:37:57;;;;;;;19.50;17.67;;;14.90;99.90;;;;;;4994006;28;20230;-50
2022/09/09 00:40:32;;;;;;;19.53;17.47;;;14.80;99.90;;;;;;4993568;28;20218;-53
2022/09/09 00:43:29;;;;;;;20.17;17.73;;;14.90;99.90;;;;;;4993653;28;20213;-52
2022/09/09 00:46:23;;;;;;;16.80;15.13;;;14.80;99.90;;;;;;4993653;28;20256;-52
2022/09/09 00:49:05;;;;;;;19.90;17.90;;;14.80;99.90;;;;;;4974031;28;20237;-52
2022/09/09 00:51:46;;;;;;;19.27;17.27;;;14.80;99.90;;;;;;4996565;28;20229;-53
2022/09/09 00:54:33;;;;;;;19.10;17.17;;;14.80;99.90;;;;;;4992869;28;20233;-51
2022/09/09 00:57:34;;;;;;;19.70;17.67;;;14.80;99.90;;;;;;4993476;28;20214;-52
2022/09/09 01:00:21;;;;;;;20.33;18.00;;;14.80;99.90;;;;;;4993170;28;20226;-50
2022/09/09 01:03:20;;;;;;;20.70;18.50;;;14.80;99.90;;;;;;4990479;28;20237;-52
2022/09/09 01:05:57;;;;;;;20.80;18.70;;;14.80;99.90;;;;;;4992006;28;20241;-52
2022/09/09 01:08:54;;;;;;;22.03;19.03;;;14.80;99.90;;;;;;4993180;28;20581;-53
2022/09/09 01:11:26;;;;;;;20.63;18.47;;;14.80;99.90;;;;;;4992073;28;20236;-52
2022/09/09 01:14:04;;;;;;;20.70;18.57;;;14.80;99.90;;;;;;5008438;28;20244;-51
2022/09/09 01:16:35;;;;;;;21.43;19.33;;;14.80;99.90;;;;;;4988379;28;20273;-52
2022/09/09 01:19:06;;;;;;;22.13;19.73;;;14.70;99.90;;;;;;5004410;28;20588;-51
2022/09/09 01:21:43;;;;;;;22.70;20.10;;;14.70;99.90;;;;;;4996213;28;20233;-53
2022/09/09 01:24:27;;;;;;;22.97;19.87;;;14.70;99.90;;;;;;4984375;28;20238;-52
2022/09/09 01:27:08;;;;;;;20.73;18.63;;;14.70;99.90;;;;;;4991224;28;20598;-53
2022/09/09 01:29:37;;;;;;;20.27;18.17;;;14.70;99.90;;;;;;4981540;28;20593;-50
2022/09/09 01:32:40;;;;;;;20.13;18.03;;;14.60;99.90;;;;;;4992459;28;20321;-52
2022/09/09 01:35:14;;;;;;;20.97;18.70;;;14.60;99.90;;;;;;4991858;28;20256;-51
2022/09/09 01:37:42;;;;;;;21.07;18.17;;;14.60;99.90;;;;;;4991734;28;20296;-53
2022/09/09 01:40:10;;;;;;;21.30;19.10;;;14.50;99.90;;;;;;5008447;28;20269;-51
2022/09/09 01:42:41;;;;;;;20.90;18.80;;;14.50;99.90;;;;;;4991635;28;20230;-52
2022/09/09 01:45:10;;;;;;;22.03;18.50;;;14.50;99.90;;;;;;4991705;28;20780;-51
2022/09/09 01:47:38;;;;;;;20.37;18.20;;;14.50;99.90;;;;;;5007717;28;20234;-53
2022/09/09 01:50:18;;;;;;;21.57;18.67;;;14.50;99.90;;;;;;4991459;28;20261;-52
2022/09/09 01:52:50;;;;;;;19.50;17.50;;;14.50;99.90;;;;;;4988415;28;20233;-52
2022/09/09 01:55:30;;;;;;;19.90;17.80;;;14.50;99.90;;;;;;5007996;28;20264;-51
2022/09/09 01:58:29;;;;;;;19.93;17.93;;;14.50;99.90;;;;;;4991704;28;20233;-51
2022/09/09 02:01:06;;;;;;;22.63;18.77;;;14.50;99.90;;;;;;4989699;28;20269;-52
2022/09/09 02:03:36;;;;;;;22.70;19.53;;;14.50;99.90;;;;;;4991483;28;20320;-50
2022/09/09 02:06:23;;;;;;;20.67;18.57;;;14.50;99.90;;;;;;4993227;28;20230;-52
2022/09/09 02:08:57;;;;;;;19.93;17.93;;;14.40;99.90;;;;;;4995207;28;20292;-52
2022/09/09 02:11:27;;;;;;;19.60;17.70;;;14.50;99.90;;;;;;4996806;28;20236;-52
2022/09/09 02:14:10;;;;;;;18.77;16.63;;;14.40;99.90;;;;;;5011488;28;20309;-52
2022/09/09 02:16:45;;;;;;;20.77;18.27;;;14.50;99.90;;;;;;4995122;28;20222;-52
2022/09/09 02:19:18;;;;;;;21.20;18.13;;;14.40;99.90;;;;;;5002995;28;20222;-52
2022/09/09 02:22:01;;;;;;;19.17;17.07;;;14.40;99.90;;;;;;4998075;28;20254;-52
2022/09/09 02:24:33;;;;;;;18.03;16.27;;;14.30;99.90;;;;;;4996229;28;20320;-53
2022/09/09 02:27:16;;;;;;;18.23;16.33;;;14.40;99.90;;;;;;4995126;28;20234;-52
2022/09/09 02:29:47;;;;;;;18.13;16.40;;;14.40;99.90;;;;;;4994476;28;20238;-52
2022/09/09 02:32:21;;;;;;;18.90;16.83;;;14.30;99.90;;;;;;4994182;28;20321;-52
2022/09/09 02:34:53;;;;;;;19.50;17.40;;;14.30;99.90;;;;;;4994624;28;20226;-50
2022/09/09 02:37:24;;;;;;;18.87;16.80;;;14.30;99.90;;;;;;4994720;28;20233;-52
2022/09/09 02:39:54;;;;;;;18.53;16.50;;;14.30;99.90;;;;;;5010957;28;20249;-52
2022/09/09 02:42:23;;;;;;;18.57;16.67;;;14.30;99.90;;;;;;4994563;28;20234;-53
2022/09/09 02:44:55;;;;;;;18.97;17.03;;;14.30;99.90;;;;;;5010804;28;20573;-52
2022/09/09 02:47:31;;;;;;;20.83;17.33;;;14.30;99.90;;;;;;4994493;28;20230;-52
2022/09/09 02:50:13;;;;;;;19.07;16.20;;;14.20;99.90;;;;;;4955467;29;20235;-53
2022/09/09 02:52:55;;;;;;;18.60;16.57;;;14.20;99.90;;;;;;4957026;28;20227;-52
2022/09/09 02:55:31;;;;;;;18.53;16.53;;;14.30;99.90;;;;;;4936486;29;20594;-53
2022/09/09 02:58:04;;;;;;;18.47;15.87;;;14.30;99.90;;;;;;4936452;29;20235;-52
2022/09/09 03:00:35;;;;;;;18.97;16.97;;;14.30;99.90;;;;;;4950657;28;20239;-51
2022/09/09 03:03:04;;;;;;;17.97;16.07;;;14.20;99.90;;;;;;4956241;28;20235;-52
2022/09/09 03:05:34;;;;;;;17.93;15.90;;;14.20;99.90;;;;;;4957816;28;20223;-50
2022/09/09 03:08:03;;;;;;;19.90;16.80;;;14.20;99.90;;;;;;4974856;28;20690;-53
2022/09/09 03:10:31;;;;;;;19.07;16.43;;;14.20;99.90;;;;;;4975652;28;20285;-50
2022/09/09 03:12:59;;;;;;;23.27;16.80;;;14.20;99.90;;;;;;4990858;28;20231;-53
2022/09/09 03:15:30;;;;;;;17.90;15.90;;;14.20;99.90;;;;;;4974374;28;20277;-53
2022/09/09 03:18:01;;;;;;;16.93;15.20;;;14.20;99.90;;;;;;4968003;28;20312;-53
2022/09/09 03:20:31;;;;;;;18.13;15.97;;;14.30;99.90;;;;;;4956225;28;20227;-52
2022/09/09 03:23:01;;;;;;;18.40;16.50;;;14.20;99.90;;;;;;4956152;28;20255;-53
2022/09/09 03:25:29;;;;;;;17.37;15.57;;;14.20;99.90;;;;;;4956387;29;20852;-52
2022/09/09 03:27:57;;;;;;;19.50;17.13;;;14.20;99.90;;;;;;4962051;28;20230;-52
2022/09/09 03:30:27;;;;;;;17.77;15.87;;;14.20;99.90;;;;;;4960740;28;20223;-53
2022/09/09 03:32:57;;;;;;;17.93;16.03;;;14.30;99.90;;;;;;4971017;28;20683;-52
2022/09/09 03:35:32;;;;;;;19.03;16.00;;;14.30;99.90;;;;;;4956633;28;20235;-54
2022/09/09 03:38:00;;;;;;;17.20;15.40;;;14.20;99.90;;;;;;4977973;28;20626;-52
2022/09/09 03:40:31;;;;;;;17.13;15.37;;;14.30;99.90;;;;;;4970236;28;20241;-52
2022/09/09 03:43:00;;;;;;;17.13;15.33;;;14.20;99.90;;;;;;4970455;28;20233;-53
2022/09/09 03:45:28;;;;;;;17.57;15.23;;;14.10;99.90;;;;;;4953941;29;20266;-50
2022/09/09 03:47:56;;;;;;;18.43;15.30;;;14.10;99.90;;;;;;4963162;28;20242;-52
2022/09/09 03:50:25;;;;;;;19.00;16.20;;;14.10;99.90;;;;;;5010082;28;20312;-52
2022/09/09 03:52:54;;;;;;;16.67;14.93;;;14.10;99.90;;;;;;4995213;28;20229;-50
2022/09/09 03:55:23;;;;;;;18.33;15.73;;;14.10;99.90;;;;;;4993466;28;20222;-53
2022/09/09 03:57:51;;;;;;;18.57;15.70;;;14.10;99.90;;;;;;4993484;28;20305;-52
2022/09/09 04:00:20;;;;;;;18.63;15.97;;;14.10;99.90;;;;;;4992809;28;20260;-52
2022/09/09 04:02:53;;;;;;;16.87;14.93;;;14.10;99.90;;;;;;4988866;28;20322;-52
2022/09/09 04:05:22;;;;;;;17.03;15.20;;;14.10;99.90;;;;;;5009365;28;20233;-53
2022/09/09 04:07:51;;;;;;;16.73;15.03;;;14.10;99.90;;;;;;4992989;28;20256;-52
2022/09/09 04:10:20;;;;;;;16.50;14.73;;;14.00;99.90;;;;;;4992861;28;20295;-53
2022/09/09 04:12:49;;;;;;;16.63;14.93;;;14.00;99.90;;;;;;4992792;28;20322;-52
2022/09/09 04:15:18;;;;;;;16.10;14.17;;;14.00;99.90;;;;;;4994155;28;20225;-53
2022/09/09 04:17:47;;;;;;;17.03;13.83;;;14.00;99.90;;;;;;5008915;28;20601;-52
2022/09/09 04:20:15;;;;;;;16.43;13.93;;;13.90;99.90;;;;;;4992786;28;20214;-53
2022/09/09 04:22:43;;;;;;;17.43;14.47;;;14.00;99.90;;;;;;5012127;28;20232;-53
2022/09/09 04:25:11;;;;;;;16.33;14.63;;;14.00;99.90;;;;;;4973236;28;20237;-52
2022/09/09 04:27:42;;;;;;;15.80;14.10;;;14.00;99.90;;;;;;4974325;28;20215;-52
2022/09/09 04:30:12;;;;;;;15.10;13.37;;;14.00;99.90;;;;;;4999683;28;20243;-52
2022/09/09 04:32:41;;;;;;;15.30;13.80;;;14.00;99.90;;;;;;5006039;28;20236;-51
2022/09/09 04:35:09;;;;;;;16.63;13.30;;;14.00;99.90;;;;;;5028493;28;20232;-53
2022/09/09 04:37:38;;;;;;;16.43;14.53;;;14.00;99.90;;;;;;5028393;28;20237;-50
2022/09/09 04:40:09;;;;;;;15.57;13.80;;;14.00;99.90;;;;;;5013343;28;20224;-53
2022/09/09 04:42:37;;;;;;;15.47;13.97;;;14.00;99.90;;;;;;5013730;28;20239;-52
2022/09/09 04:45:10;;;;;;;15.73;13.70;;;14.00;99.90;;;;;;5028368;28;20259;-52
2022/09/09 04:47:39;;;;;;;14.77;13.20;;;14.00;99.90;;;;;;5023623;28;20756;-53
2022/09/09 04:50:08;;;;;;;15.07;13.23;;;14.00;99.90;;;;;;4991994;28;20221;-52
2022/09/09 04:52:37;;;;;;;15.47;13.03;;;14.00;99.90;;;;;;4995609;28;20226;-50
2022/09/09 04:55:06;;;;;;;15.63;13.93;;;14.00;99.90;;;;;;4988747;28;20317;-51
2022/09/09 04:57:35;;;;;;;14.20;12.73;;;14.00;99.90;;;;;;4992897;28;20225;-53
2022/09/09 05:00:05;;;;;;;13.20;11.90;;;14.00;99.90;;;;;;4993186;28;20229;-53
2022/09/09 05:02:39;;;;;;;15.67;13.00;;;14.00;99.90;;;;;;5007769;28;20656;-53
2022/09/09 05:05:08;;;;;;;16.27;13.50;;;14.00;99.90;;;;;;4992281;28;20239;-50
2022/09/09 05:07:36;;;;;;;13.67;11.80;;;14.00;99.90;;;;;;4993401;28;20628;-53
2022/09/09 05:10:05;;;;;;;14.77;12.50;;;14.10;99.90;;;;;;5008439;28;20226;-53
2022/09/09 05:12:34;;;;;;;15.53;12.33;;;14.00;99.90;;;;;;5010775;28;20257;-52
2022/09/09 05:15:02;;;;;;;13.83;12.43;;;14.10;99.90;;;;;;5013151;28;20577;-51
2022/09/09 05:17:31;;;;;;;13.67;12.07;;;14.00;99.90;;;;;;4992766;28;20230;-52
2022/09/09 05:20:00;;;;;;;13.47;12.00;;;14.10;99.90;;;;;;4991457;28;20218;-53
2022/09/09 05:22:31;;;;;;;14.33;12.10;;;14.20;99.90;;;;;;5010639;28;20732;-52
2022/09/09 05:24:59;;;;;;;14.97;12.53;;;14.20;99.90;;;;;;4991730;28;20657;-53
2022/09/09 05:27:28;;;;;;;13.77;10.70;;;14.20;99.90;;;;;;4996658;28;20313;-52
2022/09/09 05:29:57;;;;;;;12.50;11.27;;;14.30;99.90;;;;;;5012319;28;20593;-53
2022/09/09 05:32:25;;;;;;;14.50;12.43;;;14.20;99.90;;;;;;4976925;28;20592;-52
2022/09/09 05:34:53;;;;;;;13.00;11.50;;;14.20;99.90;;;;;;5011058;28;20664;-52
2022/09/09 05:37:23;;;;;;;12.53;11.20;;;14.30;99.90;;;;;;5024601;28;20312;-52
2022/09/09 05:39:53;;;;;;;12.80;10.70;;;14.30;99.90;;;;;;5019116;28;20285;-52
2022/09/09 05:42:21;;;;;;;12.20;10.93;;;14.30;99.90;;;;;;4994575;28;20222;-52
2022/09/09 05:44:50;;;;;;;12.07;9.83;;;14.30;99.90;;;;;;4996520;28;20225;-51
2022/09/09 05:47:18;;;;;;;11.47;10.23;;;14.30;99.90;;;;;;4996914;28;21026;-52
2022/09/09 05:49:46;;;;;;;11.60;10.40;;;14.30;99.90;;;;;;4996413;28;20251;-53
2022/09/09 05:52:15;;;;;;;11.87;10.67;;;14.40;99.90;;;;;;4998506;28;20280;-51
2022/09/09 05:54:44;;;;;;;11.70;10.50;;;14.50;99.90;;;;;;4996739;28;20236;-52
2022/09/09 05:57:13;;;;;;;11.37;9.50;;;14.40;99.90;;;;;;4992369;28;20248;-51
2022/09/09 05:59:47;;;;;;;13.53;10.50;;;14.40;99.90;;;;;;4992203;28;20250;-53
2022/09/09 06:02:15;;;;;;;11.57;9.20;;;14.50;99.90;;;;;;4994598;28;20776;-53
2022/09/09 06:04:43;;;;;;;11.23;9.33;;;14.50;99.90;;;;;;4996419;28;20690;-53
2022/09/09 06:07:14;;;;;;;10.77;9.63;;;14.50;99.90;;;;;;5011560;28;20226;-52
2022/09/09 06:09:43;;;;;;;10.50;9.03;;;14.50;99.90;;;;;;5010715;28;20582;-53
2022/09/09 06:12:12;;;;;;;12.20;8.63;;;14.60;99.90;;;;;;4995009;28;20245;-53
2022/09/09 06:14:40;;;;;;;11.20;8.43;;;14.50;99.90;;;;;;4996196;28;20257;-53
2022/09/09 06:17:14;;;;;;;9.17;8.27;;;14.50;99.90;;;;;;5011408;28;20226;-52
2022/09/09 06:19:42;;;;;;;11.40;9.23;;;14.60;99.90;;;;;;4996017;28;20225;-53
2022/09/09 06:22:12;;;;;;;9.90;8.23;;;14.60;99.90;;;;;;4994135;28;20581;-52
2022/09/09 06:24:40;;;;;;;8.97;8.07;;;14.60;99.90;;;;;;4994715;28;20234;-53
2022/09/09 06:27:10;;;;;;;8.67;7.77;;;14.60;99.90;;;;;;5009339;28;20233;-52
2022/09/09 06:29:38;;;;;;;12.13;8.00;;;14.60;99.90;;;;;;5015595;28;20225;-52
2022/09/09 06:32:08;;;;;;;10.00;7.90;;;14.60;99.90;;;;;;5016401;28;20237;-52
2022/09/09 06:34:36;;;;;;;9.90;8.23;;;14.60;99.90;;;;;;5010991;28;20756;-52
2022/09/09 06:37:06;;;;;;;9.83;7.90;;;14.70;99.90;;;;;;5011066;28;20249;-52
2022/09/09 06:39:40;;;;;;;9.10;7.60;;;14.70;99.90;;;;;;5010924;28;20656;-52
2022/09/09 06:42:09;;;;;;;9.10;7.90;;;14.80;99.90;;;;;;4995882;28;20221;-53
2022/09/09 06:44:49;;;;;;;12.03;7.70;;;14.80;99.90;;;;;;4996157;28;20234;-53
2022/09/09 06:47:25;;;;;;;9.40;8.50;;;14.90;99.90;;;;;;4994000;28;20309;-52
2022/09/09 06:49:54;;;;;;;8.50;7.70;;;14.90;99.90;;;;;;4992276;28;20230;-53
2022/09/09 06:52:22;;;;;;;11.33;7.77;;;14.90;99.90;;;;;;4996302;28;20233;-53
2022/09/09 06:54:50;;;;;;;14.60;7.80;;;14.90;99.90;;;;;;4994487;28;20256;-54
2022/09/09 06:57:20;;;;;;;10.50;7.40;;;14.90;99.90;;;;;;4997673;28;20683;-53
2022/09/09 07:00:06;;;;;;;10.07;7.83;;;15.00;99.90;;;;;;4991125;28;20227;-53
2022/09/09 07:02:38;;;;;;;8.97;7.47;;;15.00;99.90;;;;;;4990433;28;20246;-53
2022/09/09 07:05:08;;;;;;;9.70;7.20;;;15.10;99.90;;;;;;4990993;28;20226;-54
2022/09/09 07:07:37;;;;;;;8.23;7.47;;;15.10;99.90;;;;;;4990817;28;20274;-53
2022/09/09 07:10:07;;;;;;;8.37;7.47;;;15.20;99.90;;;;;;4990884;28;20258;-52
2022/09/09 07:12:38;;;;;;;8.27;7.47;;;15.20;99.90;;;;;;4991625;28;20265;-53
2022/09/09 07:15:10;;;;;;;7.70;7.00;;;15.20;99.90;;;;;;4994084;28;20241;-52
2022/09/09 07:17:41;;;;;;;10.47;7.53;;;15.30;99.90;;;;;;4995803;28;20230;-52
2022/09/09 07:20:10;;;;;;;8.90;7.27;;;15.30;99.90;;;;;;5002197;28;20222;-51
2022/09/09 07:22:38;;;;;;;8.30;7.37;;;15.30;99.90;;;;;;4996900;28;20257;-50
2022/09/09 07:25:07;;;;;;;8.67;7.73;;;15.40;99.90;;;;;;4993610;28;20246;-53
2022/09/09 07:27:38;;;;;;;8.67;6.67;;;15.40;99.90;;;;;;5009871;28;20237;-53
2022/09/09 07:30:07;;;;;;;7.70;7.00;;;15.50;99.90;;;;;;4993758;28;20233;-53
2022/09/09 07:32:36;;;;;;;8.47;7.60;;;15.50;99.90;;;;;;4993222;28;20601;-52
2022/09/09 07:35:04;;;;;;;10.37;7.70;;;15.50;99.90;;;;;;4994957;28;20246;-52
2022/09/09 07:37:32;;;;;;;9.73;7.97;;;15.50;99.90;;;;;;4994660;28;20225;-52
2022/09/09 07:40:01;;;;;;;8.17;6.37;;;15.60;99.90;;;;;;4996051;28;20228;-52
2022/09/09 07:42:30;;;;;;;9.80;7.67;;;15.80;99.90;;;;;;4992934;28;20226;-53
2022/09/09 07:45:00;;;;;;;7.33;6.47;;;16.00;99.90;;;;;;4994521;28;20226;-53
2022/09/09 07:47:29;;;;;;;7.87;7.00;;;16.20;99.90;;;;;;5009403;28;20226;-52
2022/09/09 07:49:58;;;;;;;9.47;6.67;;;16.40;99.90;;;;;;5009592;28;20222;-53
2022/09/09 07:52:30;;;;;;;7.40;6.77;;;16.50;99.90;;;;;;4996111;28;20288;-53
2022/09/09 07:55:04;;;;;;;8.30;6.00;;;16.50;99.90;;;;;;4993035;28;20226;-53
2022/09/09 07:57:33;;;;;;;9.67;5.93;;;16.60;99.90;;;;;;4973609;28;20238;-54
2022/09/09 08:00:05;;;;;;;7.20;6.50;;;16.60;99.90;;;;;;4973777;28;20231;-50
2022/09/09 08:02:39;;;;;;;7.23;6.00;;;16.80;99.90;;;;;;4974843;28;20238;-52
2022/09/09 08:05:09;;;;;;;9.30;5.93;;;16.80;99.90;;;;;;4973393;28;20286;-51
2022/09/09 08:07:39;;;;;;;6.87;5.57;;;17.00;99.90;;;;;;4973516;28;20284;-52
2022/09/09 08:10:08;;;;;;;7.07;5.40;;;17.20;99.90;;;;;;4973585;28;20293;-52
2022/09/09 08:12:38;;;;;;;6.73;5.20;;;17.30;99.90;;;;;;4983013;28;20237;-52
2022/09/09 08:15:16;;;;;;;7.20;4.80;;;17.50;99.90;;;;;;4992905;28;20230;-52
2022/09/09 08:17:44;;;;;;;7.23;5.20;;;17.40;99.90;;;;;;4993951;28;20293;-50
2022/09/09 08:20:13;;;;;;;6.17;5.00;;;17.40;99.90;;;;;;4992723;28;20582;-53
2022/09/09 08:22:42;;;;;;;7.20;5.73;;;17.40;99.90;;;;;;4996924;28;20218;-53
2022/09/09 08:25:10;;;;;;;6.03;4.83;;;17.40;99.90;;;;;;4980597;28;20219;-54
2022/09/09 08:27:38;;;;;;;7.17;4.50;;;17.30;99.90;;;;;;4992108;28;20238;-52
2022/09/09 08:30:08;;;;;;;7.97;4.97;;;17.30;99.90;;;;;;5008833;28;20725;-54
2022/09/09 08:32:37;;;;;;;4.90;4.37;;;17.40;99.90;;;;;;4993310;28;20591;-54
2022/09/09 08:35:10;;;;;;;5.93;4.00;;;17.70;99.90;;;;;;4991672;28;20230;-53
2022/09/09 08:37:39;;;;;;;4.87;4.37;;;17.80;99.90;;;;;;5002912;28;20219;-53
2022/09/09 08:40:17;;;;;;;5.03;4.10;;;18.00;99.90;;;;;;4993322;28;20217;-53
2022/09/09 08:42:51;;;;;;;5.50;4.03;;;18.00;99.90;;;;;;4993592;28;20277;-53
2022/09/09 08:45:29;;;;;;;5.43;4.10;;;18.20;99.90;;;;;;5008670;28;20238;-53
2022/09/09 08:48:23;;;;;;;6.03;4.40;;;18.40;99.90;;;;;;4992253;28;20247;-53
2022/09/09 08:50:52;;;;;;;4.10;3.43;;;18.80;99.90;;;;;;4992845;28;20240;-52
2022/09/09 08:53:31;;;;;;;6.90;3.70;;;19.30;99.90;;;;;;4991960;28;20227;-53
2022/09/09 08:56:00;;;;;;;6.47;3.40;;;19.70;99.90;;;;;;5008674;28;20787;-54
2022/09/09 08:58:44;;;;;;;5.37;3.23;;;20.20;99.90;;;;;;5008417;28;20228;-54
2022/09/09 09:01:34;;;;;;;4.10;2.93;;;20.60;99.90;;;;;;5008272;28;20240;-53
2022/09/09 09:04:13;;;;;;;4.07;2.90;;;20.90;99.90;;;;;;4988767;28;20230;-54
2022/09/09 09:06:51;;;;;;;3.50;2.43;;;21.20;99.90;;;;;;5004409;28;20689;-54
2022/09/09 09:09:25;;;;;;;2.13;1.80;;;21.30;99.90;;;;;;4991676;28;20229;-53
2022/09/09 09:12:00;;;;;;;3.30;1.80;;;21.50;99.90;;;;;;4991817;28;20245;-53
2022/09/09 09:14:36;;;;;;;3.17;1.70;;;21.60;99.90;;;;;;5008094;28;20234;-52
2022/09/09 09:17:14;;;;;;;3.03;1.83;;;21.90;99.90;;;;;;5007898;28;20276;-54
2022/09/09 09:19:46;;;;;;;2.93;1.73;;;22.10;99.90;;;;;;5008050;28;20244;-54
2022/09/09 09:22:21;;;;;;;3.63;1.70;;;22.30;99.90;;;;;;4990757;28;20249;-54
2022/09/09 09:24:54;;;;;;;6.17;1.83;;;22.30;99.90;;;;;;4990273;28;20324;-54
2022/09/09 09:27:32;;;;;;;3.13;1.70;;;22.00;99.90;;;;;;4993118;28;20245;-53
2022/09/09 09:30:06;;;;;;;3.00;1.83;;;21.90;99.90;;;;;;4982150;28;20687;-53
2022/09/09 09:32:59;;;;;;;3.57;1.80;;;21.70;99.90;;;;;;4990419;28;20672;-54
2022/09/09 09:35:29;;;;;;;2.53;2.00;;;21.40;99.90;;;;;;4991257;28;20228;-53
2022/09/09 09:37:57;;;;;;;1.70;1.60;;;21.10;99.90;;;;;;4992655;28;20229;-54
2022/09/09 09:40:52;;;;;;;3.40;1.70;;;20.90;99.90;;;;;;4991009;28;20256;-53
2022/09/09 09:43:25;;;;;;;2.40;1.40;;;20.80;99.90;;;;;;5007131;28;20688;-54
2022/09/09 09:45:53;;;;;;;2.77;1.70;;;20.70;99.90;;;;;;4996672;28;20313;-53
2022/09/09 09:48:41;;;;;;;2.20;1.30;;;20.70;99.90;;;;;;4989762;28;20244;-55
2022/09/09 09:51:15;;;;;;;3.13;1.20;;;20.80;99.90;;;;;;5010699;28;20580;-53
2022/09/09 09:53:44;;;;;;;1.93;1.10;;;21.10;99.90;;;;;;4999150;28;20275;-53
2022/09/09 09:56:16;;;;;;;1.80;1.20;;;21.40;99.90;;;;;;4992105;28;20226;-54
2022/09/09 09:58:53;;;;;;;2.00;1.23;;;21.40;99.90;;;;;;5011507;28;20693;-54
2022/09/09 10:01:29;;;;;;;3.10;1.10;;;21.30;99.90;;;;;;5010713;28;20272;-53
2022/09/09 10:04:01;;;;;;;2.07;1.03;;;21.60;99.90;;;;;;5011070;28;20222;-55
2022/09/09 10:06:34;;;;;;;1.70;0.80;;;22.10;99.90;;;;;;5010943;28;20233;-55
2022/09/09 10:09:04;;;;;;;2.97;0.83;;;22.40;99.90;;;;;;5012720;28;20225;-53
2022/09/09 10:11:45;;;;;;;2.20;0.93;;;22.90;99.90;;;;;;5000608;28;20237;-55
2022/09/09 10:14:22;;;;;;;1.30;0.80;;;23.30;99.90;;;;;;5002024;28;20244;-53
2022/09/09 10:17:06;;;;;;;1.87;0.70;;;23.70;99.90;;;;;;4989990;28;20232;-54
2022/09/09 10:19:36;;;;;;;3.57;1.00;;;24.00;99.90;;;;;;4989631;28;20229;-53
2022/09/09 10:22:20;;;;;;;2.13;0.97;;;24.20;99.90;;;;;;5003975;28;20233;-54
2022/09/09 10:25:14;;;;;;;2.47;1.10;;;23.90;99.90;;;;;;4991733;28;20237;-54
2022/09/09 10:27:54;;;;;;;2.23;1.20;;;23.80;99.90;;;;;;4992934;28;20296;-54
2022/09/09 10:30:43;;;;;;;3.07;1.00;;;24.10;99.90;;;;;;5008912;28;20712;-54
2022/09/09 10:33:19;;;;;;;2.37;1.37;;;23.90;99.90;;;;;;4996170;28;20226;-54
2022/09/09 10:35:59;;;;;;;1.77;1.40;;;23.50;99.90;;;;;;5008248;28;20234;-55
2022/09/09 10:38:34;;;;;;;2.57;1.87;;;23.10;99.90;;;;;;4995833;28;20251;-54
2022/09/09 10:41:15;;;;;;;2.73;1.50;;;22.70;99.90;;;;;;4995862;28;20225;-53
2022/09/09 10:44:06;;;;;;;2.70;2.00;;;22.30;99.90;;;;;;4995950;28;20693;-55
2022/09/09 10:46:44;;;;;;;2.37;1.63;;;22.20;99.90;;;;;;4995596;28;20229;-54
2022/09/09 10:49:27;;;;;;;3.63;1.80;;;22.40;99.90;;;;;;4995596;28;20258;-54
2022/09/09 10:52:05;;;;;;;4.20;2.37;;;22.40;99.90;;;;;;5003641;28;20263;-54
2022/09/09 10:54:46;;;;;;;4.03;2.20;;;22.60;99.90;;;;;;5000308;28;20347;-55
2022/09/09 10:57:18;;;;;;;2.67;1.90;;;22.80;99.90;;;;;;4995595;28;20229;-54
2022/09/09 10:59:52;;;;;;;3.93;2.33;;;22.60;99.90;;;;;;4994696;28;20236;-54
2022/09/09 11:02:27;;;;;;;3.40;1.97;;;23.00;99.90;;;;;;4995043;28;20245;-55
2022/09/09 11:05:01;;;;;;;4.10;2.57;;;23.10;99.90;;;;;;4993294;28;20222;-53
2022/09/09 11:07:35;;;;;;;4.43;2.30;;;22.60;99.90;;;;;;4995355;28;20253;-54
2022/09/09 11:10:15;;;;;;;3.13;1.83;;;22.90;99.90;;;;;;4995750;28;20277;-55
2022/09/09 11:12:47;;;;;;;5.17;2.30;;;23.70;99.90;;;;;;4995230;28;20752;-55
2022/09/09 11:15:19;;;;;;;3.37;1.90;;;24.40;99.90;;;;;;4995489;28;20238;-54
2022/09/09 11:17:51;;;;;;;3.63;1.80;;;24.40;99.90;;;;;;4995330;28;20243;-54
2022/09/09 11:20:19;;;;;;;5.07;1.60;;;24.40;99.90;;;;;;4994977;28;20237;-54
2022/09/09 11:22:52;;;;;;;2.50;1.60;;;24.50;99.90;;;;;;5000552;28;20236;-54
2022/09/09 11:25:26;;;;;;;3.07;2.00;;;24.20;99.90;;;;;;5000075;28;20234;-54
2022/09/09 11:28:27;;;;;;;5.17;2.03;;;23.90;99.90;;;;;;4995391;28;20712;-55
2022/09/09 11:31:08;;;;;;;2.47;1.60;;;23.80;99.90;;;;;;4991870;28;20252;-54
2022/09/09 11:34:02;;;;;;;3.80;2.17;;;23.60;99.90;;;;;;4994741;28;20564;-54
2022/09/09 11:36:52;;;;;;;4.37;1.67;;;23.70;99.90;;;;;;4995037;28;20236;-55
2022/09/09 11:39:59;;;;;;;3.13;1.73;;;24.20;99.90;;;;;;4994200;28;20233;-54
2022/09/09 11:42:28;;;;;;;3.73;1.70;;;24.80;99.90;;;;;;4977932;28;20234;-55
2022/09/09 11:44:57;;;;;;;4.77;1.80;;;25.40;99.90;;;;;;4996897;28;20647;-55
2022/09/09 11:47:29;;;;;;;4.50;1.70;;;25.50;99.90;;;;;;4993967;28;20241;-54
2022/09/09 11:50:27;;;;;;;4.17;1.50;;;25.40;99.90;;;;;;4993312;28;20590;-55
2022/09/09 11:53:24;;;;;;;3.07;1.57;;;25.00;99.90;;;;;;5003840;28;20223;-55
2022/09/09 11:56:13;;;;;;;3.77;1.60;;;24.40;99.90;;;;;;4997884;28;20285;-55
2022/09/09 11:58:46;;;;;;;3.27;1.40;;;23.90;99.90;;;;;;4994064;28;20228;-55
2022/09/09 12:01:30;;;;;;;2.60;1.50;;;23.70;99.90;;;;;;4994080;28;20230;-54
2022/09/09 12:04:22;;;;;;;3.97;1.83;;;23.50;99.90;;;;;;4994731;28;20234;-55
2022/09/09 12:06:53;;;;;;;5.20;1.70;;;23.40;99.90;;;;;;4992117;28;20237;-55
2022/09/09 12:09:28;;;;;;;2.33;1.37;;;23.40;99.90;;;;;;4994074;28;20226;-55
2022/09/09 12:12:07;;;;;;;4.97;1.67;;;23.40;99.90;;;;;;4994480;28;20589;-54
2022/09/09 12:14:39;;;;;;;4.17;1.90;;;23.40;99.90;;;;;;4993870;28;20289;-54
2022/09/09 12:17:20;;;;;;;3.80;1.60;;;23.30;99.90;;;;;;4994159;28;20226;-54
2022/09/09 12:19:48;;;;;;;2.40;1.40;;;23.30;99.90;;;;;;4993046;28;20237;-54
2022/09/09 12:22:26;;;;;;;2.60;1.40;;;23.20;99.90;;;;;;4998618;28;20223;-55
2022/09/09 12:25:01;;;;;;;2.70;1.20;;;23.20;99.90;;;;;;5013912;28;20236;-54
2022/09/09 12:27:36;;;;;;;6.70;1.70;;;23.10;99.90;;;;;;5013612;28;20233;-54
2022/09/09 12:30:11;;;;;;;3.67;1.83;;;23.00;99.90;;;;;;5013711;28;20588;-54
2022/09/09 12:32:40;;;;;;;2.70;1.40;;;22.80;99.90;;;;;;4995574;28;20340;-54
2022/09/09 12:35:12;;;;;;;3.73;1.40;;;22.60;99.90;;;;;;4993514;28;20222;-54
2022/09/09 12:37:45;;;;;;;4.20;1.40;;;22.40;99.90;;;;;;4993606;28;20240;-54
2022/09/09 12:40:23;;;;;;;2.57;1.23;;;22.30;99.90;;;;;;4996077;28;20226;-53
2022/09/09 12:42:51;;;;;;;5.07;1.37;;;22.20;99.90;;;;;;4993722;28;20225;-55
2022/09/09 12:45:24;;;;;;;4.40;1.60;;;22.10;99.90;;;;;;4992852;28;20225;-54
2022/09/09 12:47:57;;;;;;;3.73;1.60;;;21.80;99.90;;;;;;4993396;28;20257;-54
2022/09/09 12:50:27;;;;;;;3.00;1.60;;;21.60;99.90;;;;;;4992408;28;20229;-53
2022/09/09 12:52:58;;;;;;;5.83;1.70;;;21.30;99.90;;;;;;5002686;28;20232;-54
2022/09/09 12:55:31;;;;;;;5.83;1.70;;;21.00;99.90;;;;;;4994917;28;20292;-54
2022/09/09 12:58:00;;;;;;;3.33;1.60;;;20.80;99.90;;;;;;4985833;28;20226;-54
2022/09/09 13:00:30;;;;;;;3.50;1.70;;;20.80;99.90;;;;;;4993188;28;20234;-54
2022/09/09 13:03:00;;;;;;;5.97;2.33;;;20.60;99.90;;;;;;4993245;28;20221;-55
2022/09/09 13:05:35;;;;;;;5.30;1.80;;;20.60;99.90;;;;;;4993242;28;20311;-54
2022/09/09 13:08:04;;;;;;;4.20;1.63;;;20.50;99.90;;;;;;4993444;28;20218;-54
2022/09/09 13:10:38;;;;;;;6.60;2.00;;;20.50;99.90;;;;;;4993416;28;20701;-54
2022/09/09 13:13:24;;;;;;;4.23;1.80;;;20.50;99.90;;;;;;4993528;28;20589;-54